Time;durP1;ratioP1;P1;durP2;ratioP2;P2;SDS_P1;SDS_P2;PMS_P1;PMS_P2;Temp;Humidity;BMP_temperature;BMP_pressure;BME280_temperature;BME280_humidity;BME280_pressure;Samples;Min_cycle;Max_cycle;Signal;HPM_P1;HPM_P2
2023/12/27 00:00:39;;;;;;;2.40;1.80;;;7.50;99.90;;;;;;5012618;28;20061;-63
2023/12/27 00:03:05;;;;;;;1.30;0.88;;;7.50;99.90;;;;;;5013269;28;20104;-63
2023/12/27 00:05:31;;;;;;;3.30;2.30;;;7.50;99.90;;;;;;5012821;28;20343;-62
2023/12/27 00:07:56;;;;;;;3.47;1.95;;;7.60;99.90;;;;;;5021487;28;20041;-62
2023/12/27 00:10:22;;;;;;;1.20;1.02;;;7.60;99.90;;;;;;5029066;28;20129;-62
2023/12/27 00:12:48;;;;;;;3.25;2.08;;;7.60;99.90;;;;;;5002408;28;20085;-63
2023/12/27 00:15:14;;;;;;;0.98;0.90;;;7.70;99.90;;;;;;5032927;28;20041;-62
2023/12/27 00:17:40;;;;;;;5.07;0.93;;;7.70;99.90;;;;;;5022875;28;20489;-62
2023/12/27 00:20:06;;;;;;;6.97;1.20;;;7.80;99.90;;;;;;5012961;28;20037;-62
2023/12/27 00:22:32;;;;;;;2.70;1.15;;;7.80;99.90;;;;;;5012230;28;20064;-62
2023/12/27 00:24:59;;;;;;;8.43;1.38;;;7.80;99.90;;;;;;5013127;28;20497;-64
2023/12/27 00:27:25;;;;;;;2.33;1.27;;;7.80;99.90;;;;;;4994954;28;20401;-62
2023/12/27 00:29:50;;;;;;;2.70;1.50;;;7.70;99.90;;;;;;5012716;28;20052;-62
2023/12/27 00:32:16;;;;;;;1.60;1.30;;;7.70;99.90;;;;;;5016865;28;20037;-63
2023/12/27 00:34:42;;;;;;;2.65;1.50;;;7.60;99.90;;;;;;5012855;28;20116;-63
2023/12/27 00:37:09;;;;;;;2.97;1.38;;;7.50;99.90;;;;;;5012329;28;20029;-63
2023/12/27 00:39:35;;;;;;;1.23;1.08;;;7.40;99.90;;;;;;5012778;28;20026;-63
2023/12/27 00:42:04;;;;;;;3.47;1.80;;;7.30;99.90;;;;;;4993696;28;20041;-63
2023/12/27 00:44:29;;;;;;;3.15;2.15;;;7.30;99.90;;;;;;5012748;28;20034;-63
2023/12/27 00:46:56;;;;;;;4.35;1.50;;;7.30;99.90;;;;;;5011674;28;20040;-62
2023/12/27 00:49:22;;;;;;;3.97;1.83;;;7.40;99.90;;;;;;5012385;28;20022;-64
2023/12/27 00:51:48;;;;;;;1.13;0.90;;;7.40;99.90;;;;;;4994289;28;20029;-63
2023/12/27 00:54:13;;;;;;;3.95;2.58;;;7.40;99.90;;;;;;5012383;28;20033;-64
2023/12/27 00:56:39;;;;;;;1.90;1.25;;;7.40;99.90;;;;;;5018075;28;20056;-64
2023/12/27 00:59:06;;;;;;;3.42;1.45;;;7.30;99.90;;;;;;5032209;28;20377;-63
2023/12/27 01:01:32;;;;;;;2.42;1.50;;;7.30;99.90;;;;;;4998330;28;20025;-63
2023/12/27 01:03:58;;;;;;;4.00;1.77;;;7.40;99.90;;;;;;5012214;28;20029;-64
2023/12/27 01:06:24;;;;;;;6.05;1.50;;;7.30;99.90;;;;;;5011906;28;20613;-63
2023/12/27 01:08:49;;;;;;;2.08;1.52;;;7.40;99.90;;;;;;4994585;28;20057;-63
2023/12/27 01:11:15;;;;;;;4.15;2.55;;;7.40;99.90;;;;;;4993820;28;20118;-63
2023/12/27 01:13:41;;;;;;;2.10;1.30;;;7.40;99.90;;;;;;5012011;28;20052;-62
2023/12/27 01:16:07;;;;;;;3.00;1.67;;;7.40;99.90;;;;;;5011661;28;20474;-64
2023/12/27 01:18:33;;;;;;;2.15;1.27;;;7.30;99.90;;;;;;4999862;28;20037;-63
2023/12/27 01:20:59;;;;;;;2.03;1.40;;;7.30;99.90;;;;;;5026834;28;20041;-63
2023/12/27 01:23:25;;;;;;;6.00;2.95;;;7.40;99.90;;;;;;5012045;28;20091;-63
2023/12/27 01:25:51;;;;;;;2.88;1.63;;;7.40;99.90;;;;;;5011490;28;20041;-63
2023/12/27 01:28:17;;;;;;;2.17;1.65;;;7.40;99.90;;;;;;5011945;28;20026;-63
2023/12/27 01:30:43;;;;;;;2.05;1.50;;;7.40;99.90;;;;;;5011015;28;20042;-63
2023/12/27 01:33:08;;;;;;;1.80;1.33;;;7.40;99.90;;;;;;5013818;28;20029;-62
2023/12/27 01:35:34;;;;;;;2.67;1.42;;;7.40;99.90;;;;;;5017632;28;20474;-63
2023/12/27 01:38:00;;;;;;;1.23;0.95;;;7.40;99.90;;;;;;5011028;28;20037;-63
2023/12/27 01:40:26;;;;;;;4.93;1.75;;;7.40;99.90;;;;;;5013747;28;20017;-62
2023/12/27 01:42:52;;;;;;;3.90;2.25;;;7.40;99.90;;;;;;5011655;28;20100;-63
2023/12/27 01:45:17;;;;;;;3.63;2.45;;;7.40;99.90;;;;;;5014888;28;20846;-62
2023/12/27 01:47:43;;;;;;;2.38;1.75;;;7.40;99.90;;;;;;5012735;28;20088;-62
2023/12/27 01:50:09;;;;;;;4.65;2.58;;;7.40;99.90;;;;;;4993765;28;20041;-62
2023/12/27 01:52:36;;;;;;;4.45;2.28;;;7.40;99.90;;;;;;5010746;28;20073;-62
2023/12/27 01:55:03;;;;;;;14.20;2.80;;;7.40;99.90;;;;;;4994209;28;20029;-62
2023/12/27 01:57:29;;;;;;;2.70;1.95;;;7.30;99.90;;;;;;5011066;28;20187;-62
2023/12/27 01:59:55;;;;;;;4.13;2.63;;;7.30;99.90;;;;;;4993956;28;20488;-62
2023/12/27 02:02:22;;;;;;;7.30;3.40;;;7.30;99.90;;;;;;4993143;28;20034;-62
2023/12/27 02:04:48;;;;;;;3.90;2.53;;;7.30;99.90;;;;;;5009429;28;20029;-62
2023/12/27 02:07:15;;;;;;;9.90;3.22;;;7.30;99.90;;;;;;5005859;28;20398;-64
2023/12/27 02:09:41;;;;;;;8.52;2.22;;;7.30;99.90;;;;;;4994137;28;20018;-63
2023/12/27 02:12:07;;;;;;;3.13;2.40;;;7.30;99.90;;;;;;5010422;28;20497;-63
2023/12/27 02:14:33;;;;;;;4.78;1.60;;;7.20;99.90;;;;;;4993582;28;20105;-63
2023/12/27 02:17:00;;;;;;;2.42;1.38;;;7.20;99.90;;;;;;5015872;28;20113;-63
2023/12/27 02:19:28;;;;;;;5.93;2.75;;;7.20;99.90;;;;;;5013528;28;20481;-64
2023/12/27 02:21:54;;;;;;;3.78;2.25;;;7.20;99.90;;;;;;4998615;28;20077;-64
2023/12/27 02:24:22;;;;;;;2.65;1.65;;;7.20;99.90;;;;;;4996999;28;20465;-63
2023/12/27 02:26:48;;;;;;;3.13;2.53;;;7.20;99.90;;;;;;5000118;28;20034;-63
2023/12/27 02:29:15;;;;;;;5.75;2.17;;;7.10;99.90;;;;;;4996027;28;20061;-62
2023/12/27 02:31:41;;;;;;;8.23;2.75;;;7.10;99.90;;;;;;5021822;28;20087;-62
2023/12/27 02:34:07;;;;;;;2.58;1.98;;;7.10;99.90;;;;;;5030622;28;20509;-64
2023/12/27 02:36:32;;;;;;;3.50;2.17;;;7.10;99.90;;;;;;4985090;28;20037;-62
2023/12/27 02:38:58;;;;;;;1.55;1.25;;;7.00;99.90;;;;;;5010951;28;20041;-62
2023/12/27 02:41:24;;;;;;;7.93;2.78;;;7.00;99.90;;;;;;5014124;28;20040;-63
2023/12/27 02:43:50;;;;;;;1.73;1.40;;;7.00;99.90;;;;;;5030640;28;20026;-63
2023/12/27 02:46:15;;;;;;;6.70;2.17;;;7.00;99.90;;;;;;5023666;28;20038;-62
2023/12/27 02:48:41;;;;;;;1.05;0.77;;;7.00;99.90;;;;;;5010325;28;20084;-62
2023/12/27 02:51:07;;;;;;;2.58;1.50;;;7.00;99.90;;;;;;5016266;28;20107;-62
2023/12/27 02:53:32;;;;;;;3.83;2.38;;;6.90;99.90;;;;;;5030520;28;20590;-62
2023/12/27 02:55:58;;;;;;;2.03;1.40;;;6.90;99.90;;;;;;5013297;28;20461;-62
2023/12/27 02:58:24;;;;;;;14.00;3.20;;;6.90;99.90;;;;;;4997023;28;20033;-62
2023/12/27 03:00:50;;;;;;;3.78;2.33;;;6.90;99.90;;;;;;5009333;28;20706;-62
2023/12/27 03:03:16;;;;;;;5.50;1.77;;;6.90;99.90;;;;;;5012035;28;20033;-63
2023/12/27 03:05:42;;;;;;;4.65;2.47;;;6.90;99.90;;;;;;5018830;28;20367;-62
2023/12/27 03:08:07;;;;;;;4.18;2.08;;;6.90;99.90;;;;;;5014052;28;20030;-62
2023/12/27 03:10:33;;;;;;;4.13;2.22;;;6.90;99.90;;;;;;5018218;28;20030;-64
2023/12/27 03:12:59;;;;;;;3.60;2.28;;;6.90;99.90;;;;;;5013607;28;20041;-62
2023/12/27 03:15:25;;;;;;;3.17;2.03;;;7.00;99.90;;;;;;5014172;28;20522;-62
2023/12/27 03:17:50;;;;;;;5.20;2.30;;;7.00;99.90;;;;;;5029137;28;20053;-63
2023/12/27 03:20:16;;;;;;;6.88;2.67;;;7.00;99.90;;;;;;4997041;28;20367;-63
2023/12/27 03:22:42;;;;;;;3.10;2.15;;;7.00;99.90;;;;;;5027783;28;20037;-63
2023/12/27 03:25:07;;;;;;;8.20;2.53;;;7.10;99.90;;;;;;5033773;28;20105;-63
2023/12/27 03:27:35;;;;;;;4.68;2.05;;;7.00;99.90;;;;;;5016233;28;20038;-63
2023/12/27 03:30:00;;;;;;;2.05;1.60;;;7.10;99.90;;;;;;5013610;28;20486;-63
2023/12/27 03:32:26;;;;;;;6.20;3.05;;;7.10;99.90;;;;;;5009313;28;20048;-62
2023/12/27 03:34:52;;;;;;;4.57;2.53;;;7.10;99.90;;;;;;5013889;28;20033;-63
2023/12/27 03:37:17;;;;;;;6.53;2.45;;;7.10;99.90;;;;;;5013332;28;20037;-62
2023/12/27 03:39:43;;;;;;;6.57;2.67;;;7.10;99.90;;;;;;5020353;28;20045;-63
2023/12/27 03:42:14;;;;;;;4.38;2.10;;;7.10;99.90;;;;;;5019129;28;20038;-63
2023/12/27 03:44:41;;;;;;;;;;;7.10;99.90;;;;;;5011063;28;20073;-63
2023/12/27 03:47:07;;;;;;;4.20;2.53;;;7.10;99.90;;;;;;5014932;28;19996;-63
2023/12/27 03:49:33;;;;;;;2.63;1.63;;;7.10;99.90;;;;;;5013273;28;20112;-63
2023/12/27 03:51:59;;;;;;;6.05;2.03;;;7.10;99.90;;;;;;5012711;28;20033;-63
2023/12/27 03:54:25;;;;;;;8.88;3.42;;;7.10;99.90;;;;;;5013736;28;20026;-63
2023/12/27 03:56:50;;;;;;;10.43;4.18;;;7.20;99.90;;;;;;5017487;28;20029;-63
2023/12/27 03:59:16;;;;;;;4.15;3.33;;;7.10;99.90;;;;;;5015705;28;20029;-63
2023/12/27 04:01:42;;;;;;;3.90;2.40;;;7.20;99.90;;;;;;5022863;28;20367;-63
2023/12/27 04:04:08;;;;;;;12.20;2.47;;;7.20;99.90;;;;;;5015248;28;20029;-63
2023/12/27 04:06:33;;;;;;;4.38;2.05;;;7.20;99.90;;;;;;5024501;28;20037;-63
2023/12/27 04:08:59;;;;;;;2.53;1.38;;;7.20;99.90;;;;;;5013454;28;20347;-63
2023/12/27 04:11:25;;;;;;;11.20;2.97;;;7.20;99.90;;;;;;4995308;28;20053;-64
2023/12/27 04:13:50;;;;;;;10.25;2.75;;;7.20;99.90;;;;;;5013563;28;20026;-63
2023/12/27 04:16:16;;;;;;;5.20;2.40;;;7.10;99.90;;;;;;5013489;28;20474;-63
2023/12/27 04:18:42;;;;;;;18.20;4.47;;;7.20;99.90;;;;;;5018323;28;20022;-63
2023/12/27 04:21:08;;;;;;;7.32;2.95;;;7.20;99.90;;;;;;5019410;28;20541;-63
2023/12/27 04:23:33;;;;;;;7.45;4.00;;;7.20;99.90;;;;;;4995892;28;20069;-63
2023/12/27 04:25:59;;;;;;;8.65;3.72;;;7.20;99.90;;;;;;5025360;28;20375;-63
2023/12/27 04:28:25;;;;;;;7.32;4.53;;;7.20;99.90;;;;;;4995530;28;20025;-62
2023/12/27 04:30:50;;;;;;;7.80;3.60;;;7.20;99.90;;;;;;5024987;28;20065;-63
2023/12/27 04:33:16;;;;;;;4.85;2.63;;;7.20;99.90;;;;;;5012894;28;20038;-63
2023/12/27 04:35:43;;;;;;;4.85;3.13;;;7.20;99.90;;;;;;5012523;28;20050;-63
2023/12/27 04:38:13;;;;;;;4.75;2.95;;;7.20;99.90;;;;;;4995096;28;20041;-64
2023/12/27 04:40:44;;;;;;;10.13;3.67;;;7.20;99.90;;;;;;5012080;28;20579;-64
2023/12/27 04:43:10;;;;;;;;;;;7.20;99.90;;;;;;4989774;28;20087;-62
2023/12/27 04:45:36;;;;;;;7.18;3.22;;;7.20;99.90;;;;;;5031510;28;19909;-62
2023/12/27 04:48:02;;;;;;;4.25;1.90;;;7.20;99.90;;;;;;4995032;28;20034;-62
2023/12/27 04:50:27;;;;;;;4.47;2.88;;;7.20;99.90;;;;;;5012310;28;20502;-62
2023/12/27 04:52:53;;;;;;;5.85;2.50;;;7.30;99.90;;;;;;5012241;28;20038;-62
2023/12/27 04:55:19;;;;;;;4.95;3.67;;;7.20;99.90;;;;;;5031930;28;20108;-62
2023/12/27 04:57:44;;;;;;;5.25;2.00;;;7.30;99.90;;;;;;5028282;28;20041;-61
2023/12/27 05:00:10;;;;;;;7.88;2.58;;;7.30;99.90;;;;;;5032346;28;20057;-62
2023/12/27 05:02:36;;;;;;;5.25;3.05;;;7.30;99.90;;;;;;4999014;28;20366;-63
2023/12/27 05:05:03;;;;;;;4.68;2.67;;;7.30;99.90;;;;;;5023396;28;20034;-63
2023/12/27 05:07:29;;;;;;;5.22;3.08;;;7.30;99.90;;;;;;5012810;28;20030;-64
2023/12/27 05:09:54;;;;;;;7.70;2.92;;;7.30;99.90;;;;;;5014013;28;20033;-64
2023/12/27 05:12:20;;;;;;;3.72;1.90;;;7.40;99.90;;;;;;5012164;28;20033;-64
2023/12/27 05:14:46;;;;;;;3.60;1.83;;;7.40;99.90;;;;;;5012427;28;20022;-63
2023/12/27 05:17:12;;;;;;;4.43;2.03;;;7.40;99.90;;;;;;5016526;28;20101;-63
2023/12/27 05:19:39;;;;;;;3.95;2.35;;;7.50;99.90;;;;;;5000211;28;20031;-62
2023/12/27 05:22:04;;;;;;;9.43;2.30;;;7.50;99.90;;;;;;5018117;28;20041;-62
2023/12/27 05:24:30;;;;;;;2.13;1.15;;;7.40;99.90;;;;;;4999241;28;20025;-62
2023/12/27 05:26:56;;;;;;;8.25;2.38;;;7.40;99.90;;;;;;4998556;28;20048;-62
2023/12/27 05:29:22;;;;;;;2.35;1.27;;;7.50;99.90;;;;;;5019995;28;20022;-64
2023/12/27 05:31:48;;;;;;;2.60;1.38;;;7.50;99.90;;;;;;5005260;28;20095;-60
2023/12/27 05:34:13;;;;;;;3.63;1.63;;;7.50;99.90;;;;;;5013138;28;20469;-62
2023/12/27 05:36:39;;;;;;;3.25;1.83;;;7.50;99.90;;;;;;5011590;28;20079;-62
2023/12/27 05:39:05;;;;;;;8.68;2.47;;;7.50;99.90;;;;;;5011871;28;20413;-62
2023/12/27 05:41:31;;;;;;;13.88;2.20;;;7.40;99.90;;;;;;5011329;28;20428;-63
2023/12/27 05:43:57;;;;;;;7.90;3.35;;;7.40;99.90;;;;;;5011848;28;20034;-63
2023/12/27 05:46:22;;;;;;;2.95;1.75;;;7.40;99.90;;;;;;5003477;28;20147;-63
2023/12/27 05:48:48;;;;;;;5.45;2.33;;;7.40;99.90;;;;;;5026939;28;20029;-63
2023/12/27 05:51:14;;;;;;;1.77;1.25;;;7.40;99.90;;;;;;5012243;28;20034;-63
2023/12/27 05:53:41;;;;;;;2.10;1.55;;;7.40;99.90;;;;;;5011929;28;20025;-64
2023/12/27 05:56:06;;;;;;;5.13;1.90;;;7.40;99.90;;;;;;5002042;28;20037;-63
2023/12/27 05:58:32;;;;;;;2.42;1.70;;;7.40;99.90;;;;;;5016596;28;20021;-63
2023/12/27 06:00:58;;;;;;;6.03;1.90;;;7.40;99.90;;;;;;5026666;28;20033;-63
2023/12/27 06:03:23;;;;;;;1.60;1.40;;;7.40;99.90;;;;;;5023681;28;20057;-63
2023/12/27 06:05:49;;;;;;;2.08;1.45;;;7.40;99.90;;;;;;5020098;28;20034;-63
2023/12/27 06:08:18;;;;;;;2.63;1.55;;;7.40;99.90;;;;;;5011351;28;20109;-63
2023/12/27 06:10:45;;;;;;;4.03;1.65;;;7.40;99.90;;;;;;5023318;28;20032;-63
2023/12/27 06:13:10;;;;;;;28.40;4.22;;;7.40;99.90;;;;;;5011782;28;20054;-62
2023/12/27 06:15:36;;;;;;;7.13;1.67;;;7.50;99.90;;;;;;5015304;28;20068;-62
2023/12/27 06:18:02;;;;;;;1.63;1.33;;;7.50;99.90;;;;;;5025856;28;20079;-63
2023/12/27 06:20:28;;;;;;;5.22;1.27;;;7.60;99.90;;;;;;5030852;28;20032;-62
2023/12/27 06:22:54;;;;;;;3.25;2.00;;;7.60;99.90;;;;;;5018802;28;20037;-64
2023/12/27 06:25:19;;;;;;;1.80;1.23;;;7.60;99.90;;;;;;5031100;28;20033;-64
2023/12/27 06:27:45;;;;;;;4.18;2.47;;;7.60;99.90;;;;;;5002829;28;20717;-62
2023/12/27 06:30:11;;;;;;;8.75;2.25;;;7.60;99.90;;;;;;5011500;28;20470;-62
2023/12/27 06:32:40;;;;;;;2.42;1.50;;;7.60;99.90;;;;;;5010594;28;20113;-63
2023/12/27 06:35:06;;;;;;;5.10;1.95;;;7.60;99.90;;;;;;5020703;28;20032;-63
2023/12/27 06:37:32;;;;;;;6.78;1.73;;;7.60;99.90;;;;;;5014044;28;20030;-63
2023/12/27 06:39:57;;;;;;;3.30;1.42;;;7.60;99.90;;;;;;5030194;28;20551;-63
2023/12/27 06:42:23;;;;;;;3.25;1.65;;;7.60;99.90;;;;;;5003252;28;20539;-62
2023/12/27 06:44:49;;;;;;;3.03;1.60;;;7.60;99.90;;;;;;5010944;28;20030;-62
2023/12/27 06:47:15;;;;;;;12.65;2.03;;;7.60;99.90;;;;;;5014713;28;20056;-63
2023/12/27 06:49:41;;;;;;;2.97;1.40;;;7.60;99.90;;;;;;5014913;28;20494;-63
2023/12/27 06:52:06;;;;;;;2.85;1.42;;;7.60;99.90;;;;;;5015365;28;20502;-66
2023/12/27 06:54:32;;;;;;;3.88;1.83;;;7.60;99.90;;;;;;5034948;28;20026;-62
2023/12/27 06:56:59;;;;;;;1.92;1.10;;;7.60;99.90;;;;;;5008097;28;20048;-62
2023/12/27 06:59:26;;;;;;;3.15;1.50;;;7.50;99.90;;;;;;5034585;28;20040;-63
2023/12/27 07:01:52;;;;;;;12.65;1.83;;;7.60;99.90;;;;;;5004962;28;20056;-62
2023/12/27 07:04:19;;;;;;;7.18;1.92;;;7.50;99.90;;;;;;5015113;28;20108;-62
2023/12/27 07:06:47;;;;;;;7.78;1.33;;;7.50;99.90;;;;;;5014351;28;20057;-62
2023/12/27 07:09:16;;;;;;;8.50;1.60;;;7.50;99.90;;;;;;4997517;28;20045;-63
2023/12/27 07:11:41;;;;;;;1.08;0.82;;;7.50;99.90;;;;;;5000729;28;20058;-62
2023/12/27 07:14:07;;;;;;;2.28;1.10;;;7.60;99.90;;;;;;5014723;28;20104;-63
2023/12/27 07:16:33;;;;;;;2.55;1.38;;;7.50;99.90;;;;;;5018810;28;20108;-62
2023/12/27 07:18:59;;;;;;;5.47;2.53;;;7.50;99.90;;;;;;5033360;28;20079;-62
2023/12/27 07:21:25;;;;;;;2.95;1.42;;;7.60;99.90;;;;;;5026106;28;20489;-62
2023/12/27 07:23:50;;;;;;;4.03;1.85;;;7.50;99.90;;;;;;5014710;28;20061;-63
2023/12/27 07:26:16;;;;;;;3.78;1.65;;;7.60;99.90;;;;;;4995506;28;20117;-62
2023/12/27 07:28:42;;;;;;;6.95;1.80;;;7.60;99.90;;;;;;5014428;28;20022;-62
2023/12/27 07:31:08;;;;;;;1.35;1.10;;;7.60;99.90;;;;;;4999857;28;20031;-63
2023/12/27 07:33:38;;;;;;;2.17;1.00;;;7.70;99.90;;;;;;5016429;28;20453;-61
2023/12/27 07:36:04;;;;;;;2.70;1.88;;;7.60;99.90;;;;;;5029047;28;20462;-62
2023/12/27 07:38:30;;;;;;;2.45;1.70;;;7.60;99.90;;;;;;5018613;28;20033;-62
2023/12/27 07:40:56;;;;;;;1.73;1.48;;;7.70;99.90;;;;;;5029573;28;20512;-62
2023/12/27 07:43:23;;;;;;;3.03;1.45;;;7.70;99.90;;;;;;5017388;28;20080;-62
2023/12/27 07:45:48;;;;;;;7.35;1.70;;;7.70;99.90;;;;;;5031218;28;20034;-60
2023/12/27 07:48:14;;;;;;;4.65;1.95;;;7.70;99.90;;;;;;5024477;28;20539;-62
2023/12/27 07:50:40;;;;;;;1.95;1.25;;;7.70;99.90;;;;;;5031445;28;20778;-62
2023/12/27 07:53:06;;;;;;;4.22;2.38;;;7.70;99.90;;;;;;5013799;28;20468;-62
2023/12/27 07:55:32;;;;;;;2.10;0.95;;;7.70;99.90;;;;;;5013447;28;20053;-63
2023/12/27 07:57:58;;;;;;;2.25;1.17;;;7.60;99.90;;;;;;5009536;28;20504;-64
2023/12/27 08:00:23;;;;;;;2.90;1.10;;;7.70;99.90;;;;;;5013856;28;20540;-62
2023/12/27 08:02:49;;;;;;;2.28;1.25;;;7.70;99.90;;;;;;5012831;28;20034;-62
2023/12/27 08:05:16;;;;;;;2.65;1.48;;;7.60;99.90;;;;;;4998459;28;20029;-62
2023/12/27 08:07:42;;;;;;;5.78;2.75;;;7.60;99.90;;;;;;5014826;28;20028;-62
2023/12/27 08:10:09;;;;;;;4.40;1.98;;;7.70;99.90;;;;;;5014589;28;20034;-61
2023/12/27 08:12:35;;;;;;;2.45;1.27;;;7.70;99.90;;;;;;4999026;28;20044;-63
2023/12/27 08:15:01;;;;;;;2.17;1.48;;;7.70;99.90;;;;;;4995937;28;20530;-63
2023/12/27 08:17:26;;;;;;;5.30;2.00;;;7.70;99.90;;;;;;4995618;28;20029;-63
2023/12/27 08:19:53;;;;;;;2.17;1.27;;;7.70;99.90;;;;;;5012675;28;20033;-62
2023/12/27 08:22:20;;;;;;;7.50;1.58;;;7.80;99.90;;;;;;5017279;28;20038;-63
2023/12/27 08:24:46;;;;;;;9.63;1.95;;;7.80;99.90;;;;;;5012931;28;20040;-65
2023/12/27 08:27:12;;;;;;;11.23;2.10;;;7.90;99.90;;;;;;5022847;28;20025;-62
2023/12/27 08:29:38;;;;;;;1.75;1.38;;;7.90;99.90;;;;;;5015310;28;20409;-64
2023/12/27 08:32:04;;;;;;;2.50;1.45;;;7.90;99.90;;;;;;5019363;28;20180;-62
2023/12/27 08:34:30;;;;;;;2.92;1.60;;;7.90;99.90;;;;;;4995430;28;20026;-62
2023/12/27 08:36:56;;;;;;;0.63;0.63;;;7.90;99.90;;;;;;5012945;28;20437;-60
2023/12/27 08:39:21;;;;;;;3.67;1.40;;;8.00;99.90;;;;;;5012940;28;20030;-62
2023/12/27 08:41:47;;;;;;;2.35;1.33;;;7.90;99.90;;;;;;5012363;28;20048;-62
2023/12/27 08:44:13;;;;;;;1.52;0.98;;;7.90;99.90;;;;;;5013208;28;20042;-60
2023/12/27 08:46:39;;;;;;;4.15;1.42;;;7.90;99.90;;;;;;4994946;28;20481;-62
2023/12/27 08:49:05;;;;;;;10.85;1.65;;;7.90;99.90;;;;;;5013051;28;20041;-62
2023/12/27 08:51:31;;;;;;;5.45;2.28;;;8.00;99.90;;;;;;4994656;28;20025;-62
2023/12/27 08:53:58;;;;;;;1.95;1.20;;;8.00;99.90;;;;;;4995206;28;20030;-63
2023/12/27 08:56:24;;;;;;;3.63;0.90;;;8.10;99.90;;;;;;5012184;28;20105;-63
2023/12/27 08:58:50;;;;;;;3.63;1.27;;;8.20;99.90;;;;;;5012806;28;20026;-63
2023/12/27 09:01:17;;;;;;;5.00;1.48;;;8.30;99.90;;;;;;5011435;28;20049;-63
2023/12/27 09:03:43;;;;;;;2.03;1.35;;;8.30;99.90;;;;;;5012761;28;20116;-62
2023/12/27 09:06:09;;;;;;;1.40;0.88;;;8.40;99.90;;;;;;5012443;28;20060;-63
2023/12/27 09:08:38;;;;;;;3.30;1.20;;;8.40;99.90;;;;;;5007983;28;20105;-62
2023/12/27 09:11:07;;;;;;;7.32;1.15;;;8.40;99.90;;;;;;5026449;28;20102;-62
2023/12/27 09:13:32;;;;;;;8.27;1.30;;;8.50;99.90;;;;;;4994866;28;20030;-63
2023/12/27 09:15:58;;;;;;;2.63;1.20;;;8.50;99.90;;;;;;5011943;28;20034;-63
2023/12/27 09:18:24;;;;;;;1.20;0.80;;;8.50;99.90;;;;;;5012574;28;20112;-63
2023/12/27 09:20:49;;;;;;;2.42;1.15;;;8.60;99.90;;;;;;5011564;28;20141;-62
2023/12/27 09:23:15;;;;;;;2.47;1.13;;;8.70;99.90;;;;;;5012480;28;20057;-62
2023/12/27 09:25:41;;;;;;;6.45;1.45;;;8.70;99.90;;;;;;4994572;28;20030;-63
2023/12/27 09:28:08;;;;;;;7.55;1.73;;;8.70;99.90;;;;;;5013255;28;20496;-63
2023/12/27 09:30:36;;;;;;;12.82;2.65;;;8.80;99.90;;;;;;5001071;28;20030;-63
2023/12/27 09:33:03;;;;;;;2.35;1.20;;;8.80;99.90;;;;;;5008427;28;20021;-63
2023/12/27 09:35:28;;;;;;;1.95;1.13;;;8.80;99.90;;;;;;5014586;28;20029;-60
2023/12/27 09:37:54;;;;;;;3.55;1.55;;;8.90;99.90;;;;;;4990418;28;20022;-65
2023/12/27 09:40:20;;;;;;;2.38;1.17;;;8.90;99.90;;;;;;5028390;28;20037;-63
2023/12/27 09:42:48;;;;;;;4.20;1.38;;;8.90;99.90;;;;;;5011583;28;20045;-63
2023/12/27 09:45:17;;;;;;;2.72;1.17;;;9.00;99.90;;;;;;4994782;28;20105;-62
2023/12/27 09:47:53;;;;;;;7.45;1.83;;;9.00;99.90;;;;;;5025873;28;20033;-63
2023/12/27 09:50:20;;;;;;;7.10;1.17;;;9.10;99.90;;;;;;5014893;28;20022;-63
2023/12/27 09:52:47;;;;;;;5.45;1.42;;;9.30;99.90;;;;;;5012836;28;20038;-65
2023/12/27 09:55:13;;;;;;;5.30;1.20;;;9.30;99.90;;;;;;4994513;28;20497;-64
2023/12/27 09:57:41;;;;;;;6.07;2.50;;;9.60;99.90;;;;;;5025158;28;20029;-64
2023/12/27 10:00:12;;;;;;;1.83;0.73;;;9.70;99.90;;;;;;5031825;28;20049;-63
2023/12/27 10:02:43;;;;;;;5.50;0.70;;;9.80;99.90;;;;;;5013699;28;20025;-63
2023/12/27 10:05:22;;;;;;;;;;;9.80;99.90;;;;;;5012730;28;20025;-63
2023/12/27 10:07:48;;;;;;;1.10;0.60;;;9.80;99.90;;;;;;5012689;28;19913;-63
2023/12/27 10:10:14;;;;;;;5.55;1.30;;;9.90;99.90;;;;;;5012496;28;20397;-64
2023/12/27 10:12:41;;;;;;;7.30;1.88;;;9.90;99.90;;;;;;4992203;28;20037;-64
2023/12/27 10:15:08;;;;;;;2.75;1.25;;;10.40;99.90;;;;;;5014823;28;20024;-64
2023/12/27 10:17:34;;;;;;;6.88;2.45;;;11.70;99.90;;;;;;5015510;28;20097;-64
2023/12/27 10:19:59;;;;;;;2.58;1.58;;;11.50;99.90;;;;;;5015728;28;20496;-64
2023/12/27 10:22:27;;;;;;;7.40;2.28;;;11.30;99.90;;;;;;4997388;28;20029;-62
2023/12/27 10:24:53;;;;;;;8.30;1.85;;;11.40;99.90;;;;;;5015829;28;20037;-63
2023/12/27 10:27:20;;;;;;;1.55;1.00;;;10.60;99.90;;;;;;5011113;28;20116;-62
2023/12/27 10:29:49;;;;;;;5.80;2.20;;;10.50;99.90;;;;;;5015860;28;20052;-62
2023/12/27 10:32:19;;;;;;;4.63;1.65;;;10.30;99.90;;;;;;5014888;28;20030;-62
2023/12/27 10:34:46;;;;;;;1.63;0.90;;;10.10;99.90;;;;;;5015447;28;20034;-62
2023/12/27 10:37:12;;;;;;;2.58;1.10;;;9.90;99.90;;;;;;4997459;28;20038;-62
2023/12/27 10:39:45;;;;;;;5.97;1.75;;;10.00;99.90;;;;;;4997777;28;20696;-62
2023/12/27 10:42:16;;;;;;;16.52;1.48;;;10.20;99.90;;;;;;5014153;28;20494;-63
2023/12/27 10:44:46;;;;;;;4.43;1.70;;;10.40;99.90;;;;;;4998282;28;20109;-63
2023/12/27 10:47:19;;;;;;;3.87;1.00;;;10.30;99.90;;;;;;4997434;28;20030;-62
2023/12/27 10:49:48;;;;;;;20.42;1.55;;;10.80;99.90;;;;;;5015126;28;20288;-62
2023/12/27 10:52:17;;;;;;;3.17;1.27;;;12.20;99.90;;;;;;4996908;28;20081;-62
2023/12/27 10:54:48;;;;;;;3.20;1.05;;;13.80;99.90;;;;;;5003819;28;20025;-62
2023/12/27 10:57:19;;;;;;;6.63;1.60;;;12.40;99.90;;;;;;5019627;28;20026;-62
2023/12/27 10:59:47;;;;;;;5.72;1.10;;;12.10;99.90;;;;;;5014850;28;20622;-62
2023/12/27 11:02:13;;;;;;;4.68;1.45;;;12.30;99.90;;;;;;4996697;28;20037;-62
2023/12/27 11:04:42;;;;;;;1.27;0.88;;;12.70;99.90;;;;;;5015180;28;20030;-62
2023/12/27 11:07:09;;;;;;;3.67;1.13;;;12.60;99.90;;;;;;4997105;28;20088;-62
2023/12/27 11:09:38;;;;;;;4.00;1.13;;;12.10;99.90;;;;;;4997477;28;20034;-63
2023/12/27 11:12:07;;;;;;;3.42;0.77;;;12.10;99.90;;;;;;5008428;28;20562;-63
2023/12/27 11:14:36;;;;;;;3.28;1.27;;;11.50;99.90;;;;;;5034935;28;20072;-63
2023/12/27 11:17:05;;;;;;;1.20;0.90;;;10.90;99.90;;;;;;5000957;28;20025;-62
2023/12/27 11:19:33;;;;;;;7.00;1.30;;;10.40;99.90;;;;;;4997395;28;20117;-63
2023/12/27 11:21:59;;;;;;;2.33;1.17;;;10.40;99.90;;;;;;4996630;28;20062;-64
2023/12/27 11:24:24;;;;;;;6.28;1.15;;;10.10;99.90;;;;;;4996331;28;20064;-63
2023/12/27 11:27:00;;;;;;;1.38;0.65;;;10.40;99.90;;;;;;5013995;28;20025;-63
2023/12/27 11:29:31;;;;;;;7.78;1.17;;;10.50;99.90;;;;;;4996938;28;20485;-62
2023/12/27 11:32:00;;;;;;;1.05;0.60;;;10.50;99.90;;;;;;4996838;28;20053;-64
2023/12/27 11:34:26;;;;;;;2.47;0.95;;;10.60;99.90;;;;;;5000697;28;20412;-62
2023/12/27 11:36:53;;;;;;;5.43;1.45;;;10.60;99.90;;;;;;4997859;28;20026;-63
2023/12/27 11:39:29;;;;;;;1.52;0.93;;;10.70;99.90;;;;;;5014301;28;20087;-63
2023/12/27 11:41:55;;;;;;;1.98;0.80;;;10.80;99.90;;;;;;4996454;28;20674;-63
2023/12/27 11:44:21;;;;;;;1.77;0.75;;;10.70;99.90;;;;;;5014043;28;20034;-63
2023/12/27 11:46:46;;;;;;;0.75;0.57;;;10.90;99.90;;;;;;5013900;28;20050;-63
2023/12/27 11:49:20;;;;;;;3.97;1.13;;;10.80;99.90;;;;;;4996289;28;20053;-63
2023/12/27 11:51:46;;;;;;;0.82;0.60;;;10.90;99.90;;;;;;5013254;28;20493;-64
2023/12/27 11:54:26;;;;;;;2.08;0.75;;;10.80;99.90;;;;;;4996648;28;20049;-63
2023/12/27 11:56:53;;;;;;;0.73;0.30;;;10.90;99.90;;;;;;4996647;28;20034;-63
2023/12/27 11:59:21;;;;;;;1.50;0.63;;;11.10;99.90;;;;;;4996575;28;20092;-63
2023/12/27 12:01:52;;;;;;;2.83;1.17;;;10.80;99.90;;;;;;5013461;28;20041;-63
2023/12/27 12:04:33;;;;;;;3.30;1.55;;;10.60;99.90;;;;;;5007338;28;20060;-63
2023/12/27 12:07:51;;;;;;;2.20;1.17;;;11.00;99.90;;;;;;5028970;28;20045;-63
2023/12/27 12:10:22;;;;;;;3.53;1.65;;;11.00;99.90;;;;;;4944501;28;20044;-63
2023/12/27 12:12:49;;;;;;;3.38;1.27;;;11.30;99.90;;;;;;5013232;28;20061;-64
2023/12/27 12:15:18;;;;;;;3.55;1.45;;;11.30;99.90;;;;;;4996185;28;20561;-63
2023/12/27 12:17:44;;;;;;;0.93;0.73;;;11.40;99.90;;;;;;4996026;28;20478;-64
2023/12/27 12:20:12;;;;;;;2.33;0.80;;;11.20;99.90;;;;;;5014384;28;20478;-60
2023/12/27 12:22:39;;;;;;;2.00;0.77;;;11.10;99.90;;;;;;5014627;28;20026;-63
2023/12/27 12:25:07;;;;;;;4.72;0.85;;;11.10;99.90;;;;;;4995811;28;20037;-62
2023/12/27 12:27:33;;;;;;;1.65;0.90;;;11.20;99.90;;;;;;5012684;28;20034;-62
2023/12/27 12:29:59;;;;;;;0.57;0.57;;;11.40;99.90;;;;;;4995274;28;20038;-62
2023/12/27 12:32:27;;;;;;;1.13;0.60;;;11.50;99.90;;;;;;5012050;28;20095;-62
2023/12/27 12:34:53;;;;;;;3.45;0.90;;;11.50;99.90;;;;;;5013108;28;20478;-64
2023/12/27 12:37:19;;;;;;;1.13;0.75;;;11.40;99.90;;;;;;5011654;28;20045;-63
2023/12/27 12:39:45;;;;;;;8.63;1.38;;;11.40;99.90;;;;;;4995418;28;20033;-62
2023/12/27 12:42:11;;;;;;;2.08;1.17;;;11.30;99.90;;;;;;4994453;28;20048;-63
2023/12/27 12:44:38;;;;;;;6.35;0.98;;;10.80;99.90;;;;;;4996007;28;20059;-64
2023/12/27 12:47:04;;;;;;;12.38;1.27;;;10.70;99.90;;;;;;4995323;28;20045;-63
2023/12/27 12:49:31;;;;;;;3.97;0.80;;;10.70;99.90;;;;;;4995531;28;20026;-62
2023/12/27 12:52:06;;;;;;;3.13;1.25;;;10.70;99.90;;;;;;4994662;28;20030;-63